createdAt,value
2017-06-19T00:00:32.030Z,0
2017-06-19T00:01:32.028Z,0
2017-06-19T00:02:32.025Z,0
2017-06-19T00:03:32.028Z,0
2017-06-19T00:04:32.026Z,0
2017-06-19T00:05:31.407Z,0
2017-06-19T00:06:32.019Z,0
2017-06-19T00:07:32.015Z,0
2017-06-19T00:08:32.326Z,0
2017-06-19T00:09:32.323Z,0
2017-06-19T00:10:32.012Z,0
2017-06-19T00:11:32.314Z,0
2017-06-19T00:12:32.007Z,0
2017-06-19T00:13:32.002Z,0
2017-06-19T00:14:32.307Z,0
2017-06-19T00:15:31.999Z,0
2017-06-19T00:16:32.305Z,0
2017-06-19T00:17:31.692Z,0
2017-06-19T00:18:32.002Z,0
2017-06-19T00:19:31.994Z,0
2017-06-19T00:20:31.991Z,0
2017-06-19T00:21:31.682Z,0
2017-06-19T00:22:32.307Z,0
2017-06-19T00:23:32.293Z,0
2017-06-19T00:24:31.987Z,0
2017-06-19T00:25:31.978Z,0
2017-06-19T00:26:32.281Z,0
2017-06-19T00:27:31.667Z,0
2017-06-19T00:28:31.975Z,0
2017-06-19T00:29:32.274Z,0
2017-06-19T00:30:31.971Z,0
2017-06-19T00:31:31.970Z,0
2017-06-19T00:32:32.274Z,0
2017-06-19T00:33:31.965Z,0
2017-06-19T00:34:32.265Z,0
2017-06-19T00:35:32.262Z,0
2017-06-19T00:36:32.262Z,0
2017-06-19T00:37:31.954Z,0
2017-06-19T00:38:32.254Z,0
2017-06-19T00:39:31.951Z,0
2017-06-19T00:40:32.255Z,0
2017-06-19T00:41:32.259Z,0
2017-06-19T00:42:31.942Z,0
2017-06-19T00:43:32.249Z,0
2017-06-19T00:44:31.937Z,0
2017-06-19T00:45:31.942Z,0
2017-06-19T00:46:32.245Z,0
2017-06-19T00:47:31.933Z,0
2017-06-19T00:48:31.654Z,0
2017-06-19T00:49:32.230Z,0
2017-06-19T00:50:31.929Z,0
2017-06-19T00:51:32.228Z,0
2017-06-19T00:52:31.922Z,0
2017-06-19T00:53:32.226Z,0
2017-06-19T00:54:31.918Z,0
2017-06-19T00:55:31.612Z,0
2017-06-19T00:56:31.915Z,0
2017-06-19T00:57:32.213Z,0
2017-06-19T00:58:32.217Z,0
2017-06-19T00:59:32.211Z,0
2017-06-19T01:00:32.209Z,0
2017-06-19T01:01:31.902Z,0
2017-06-19T01:02:31.909Z,0
2017-06-19T01:03:31.290Z,0
2017-06-19T01:04:32.203Z,0
2017-06-19T01:05:32.203Z,0
2017-06-19T01:06:32.195Z,0
2017-06-19T01:07:32.206Z,0
2017-06-19T01:08:32.195Z,0
2017-06-19T01:09:32.085Z,0
2017-06-19T01:10:31.888Z,0
2017-06-19T01:11:31.574Z,0
2017-06-19T01:12:32.183Z,0
2017-06-19T01:13:31.882Z,0
2017-06-19T01:14:32.184Z,0
2017-06-19T01:15:31.571Z,0
2017-06-19T01:16:31.872Z,0
2017-06-19T01:17:32.177Z,0
2017-06-19T01:18:31.558Z,0
2017-06-19T01:19:31.865Z,0
2017-06-19T01:20:31.248Z,0
2017-06-19T01:21:31.588Z,0
2017-06-19T01:22:31.553Z,0
2017-06-19T01:23:31.551Z,0
2017-06-19T01:24:31.547Z,0
2017-06-19T01:25:32.162Z,0
2017-06-19T01:26:31.546Z,0
2017-06-19T01:27:31.848Z,0
2017-06-19T01:28:31.542Z,0
2017-06-19T01:29:32.151Z,0
2017-06-19T01:30:31.843Z,0
2017-06-19T01:31:31.840Z,0
2017-06-19T01:32:31.840Z,0
2017-06-19T01:33:31.836Z,0
2017-06-19T01:34:31.837Z,0
2017-06-19T01:35:31.836Z,0
2017-06-19T01:36:31.532Z,0
2017-06-19T01:37:31.834Z,0
2017-06-19T01:38:31.830Z,0
2017-06-19T01:39:32.133Z,0
2017-06-19T01:40:32.128Z,0
2017-06-19T01:41:31.821Z,0
2017-06-19T01:42:31.815Z,0
2017-06-19T01:43:32.121Z,0
2017-06-19T01:44:32.122Z,0
2017-06-19T01:45:31.205Z,0
2017-06-19T01:46:31.813Z,0
2017-06-19T01:47:31.820Z,0
2017-06-19T01:48:31.506Z,0
2017-06-19T01:49:32.108Z,0
2017-06-19T01:50:31.803Z,0
2017-06-19T01:51:31.801Z,0
2017-06-19T01:52:31.802Z,0
2017-06-19T01:53:31.798Z,0
2017-06-19T01:54:32.103Z,0
2017-06-19T01:55:31.489Z,0
2017-06-19T01:56:32.100Z,0
2017-06-19T01:57:32.102Z,0
2017-06-19T01:58:31.790Z,0
2017-06-19T01:59:31.804Z,0
2017-06-19T02:00:31.785Z,0
2017-06-19T02:01:32.088Z,0
2017-06-19T02:02:32.089Z,0
2017-06-19T02:03:32.085Z,0
2017-06-19T02:04:32.080Z,0
2017-06-19T02:05:31.473Z,0
2017-06-19T02:06:31.464Z,0
2017-06-19T02:07:31.775Z,0
2017-06-19T02:08:31.466Z,0
2017-06-19T02:09:31.771Z,0
2017-06-19T02:10:31.762Z,0
2017-06-19T02:11:32.074Z,0
2017-06-19T02:12:32.076Z,0
2017-06-19T02:13:31.763Z,0
2017-06-19T02:14:32.063Z,0
2017-06-19T02:15:31.753Z,0
2017-06-19T02:16:32.063Z,0
2017-06-19T02:17:31.955Z,0
2017-06-19T02:18:31.749Z,0
2017-06-19T02:19:31.750Z,0
2017-06-19T02:20:32.049Z,0
2017-06-19T02:21:31.747Z,0
2017-06-19T02:22:31.742Z,0
2017-06-19T02:23:31.745Z,0
2017-06-19T02:24:32.046Z,0
2017-06-19T02:25:32.042Z,0
2017-06-19T02:26:32.042Z,0
2017-06-19T02:27:32.042Z,0
2017-06-19T02:28:32.035Z,0
2017-06-19T02:29:31.437Z,0
2017-06-19T02:30:32.040Z,0
2017-06-19T02:31:31.725Z,0
2017-06-19T02:32:31.730Z,0
2017-06-19T02:33:32.025Z,0
2017-06-19T02:34:32.025Z,0
2017-06-19T02:35:31.715Z,0
2017-06-19T02:36:31.424Z,0
2017-06-19T02:37:32.018Z,0
2017-06-19T02:38:32.018Z,0
2017-06-19T02:39:32.018Z,0
2017-06-19T02:40:31.729Z,0
2017-06-19T02:41:32.010Z,0
2017-06-19T02:42:32.004Z,0
2017-06-19T02:43:32.009Z,0
2017-06-19T02:44:31.999Z,0
2017-06-19T02:45:32.005Z,0
2017-06-19T02:46:31.700Z,0
2017-06-19T02:47:31.691Z,0
2017-06-19T02:48:31.999Z,0
2017-06-19T02:49:31.999Z,0
2017-06-19T02:50:31.995Z,0
2017-06-19T02:51:31.695Z,0
2017-06-19T02:52:31.693Z,0
2017-06-19T02:53:31.988Z,0
2017-06-19T02:54:31.683Z,0
2017-06-19T02:55:31.984Z,0
2017-06-19T02:56:31.669Z,0
2017-06-19T02:57:31.978Z,0
2017-06-19T02:58:31.716Z,0
2017-06-19T02:59:31.972Z,0
2017-06-19T03:00:31.978Z,0
2017-06-19T03:01:31.968Z,0
2017-06-19T03:02:31.355Z,0
2017-06-19T03:03:31.964Z,0
2017-06-19T03:04:31.355Z,0
2017-06-19T03:05:31.673Z,0
2017-06-19T03:06:31.963Z,0
2017-06-19T03:07:31.649Z,0
2017-06-19T03:08:31.953Z,0
2017-06-19T03:09:31.951Z,0
2017-06-19T03:10:31.643Z,0
2017-06-19T03:11:31.949Z,0
2017-06-19T03:12:31.637Z,0
2017-06-19T03:13:31.941Z,0
2017-06-19T03:14:31.940Z,0
2017-06-19T03:15:31.633Z,0
2017-06-19T03:16:31.942Z,0
2017-06-19T03:17:31.630Z,0
2017-06-19T03:18:31.934Z,0
2017-06-19T03:19:31.933Z,0
2017-06-19T03:20:31.932Z,0
2017-06-19T03:21:31.968Z,0
2017-06-19T03:22:31.922Z,0
2017-06-19T03:23:31.315Z,0
2017-06-19T03:24:31.920Z,0
2017-06-19T03:25:31.920Z,0
2017-06-19T03:26:31.918Z,0
2017-06-19T03:27:31.627Z,0
2017-06-19T03:28:31.914Z,0
2017-06-19T03:29:31.907Z,0
2017-06-19T03:30:31.909Z,0
2017-06-19T03:31:31.915Z,5
2017-06-19T03:32:31.903Z,5
2017-06-19T03:33:31.618Z,5
2017-06-19T03:34:31.596Z,5
2017-06-19T03:35:31.596Z,5
2017-06-19T03:36:31.284Z,5
2017-06-19T03:37:31.595Z,5
2017-06-19T03:38:31.588Z,5
2017-06-19T03:39:31.887Z,5
2017-06-19T03:40:31.584Z,5
2017-06-19T03:41:31.888Z,5
2017-06-19T03:42:31.580Z,5
2017-06-19T03:43:31.884Z,5
2017-06-19T03:44:31.270Z,5
2017-06-19T03:45:31.879Z,5
2017-06-19T03:46:31.878Z,10
2017-06-19T03:47:31.877Z,10
2017-06-19T03:48:31.869Z,10
2017-06-19T03:49:31.258Z,10
2017-06-19T03:50:31.587Z,10
2017-06-19T03:51:31.865Z,10
2017-06-19T03:52:31.866Z,10
2017-06-19T03:53:31.568Z,15
2017-06-19T03:54:31.871Z,15
2017-06-19T03:55:31.863Z,15
2017-06-19T03:56:31.549Z,15
2017-06-19T03:57:31.854Z,15
2017-06-19T03:58:31.854Z,15
2017-06-19T03:59:31.550Z,15
2017-06-19T04:00:31.851Z,15
2017-06-19T04:01:31.541Z,20
2017-06-19T04:02:31.844Z,20
2017-06-19T04:03:31.549Z,20
2017-06-19T04:04:31.840Z,20
2017-06-19T04:05:31.227Z,20
2017-06-19T04:06:31.225Z,25
2017-06-19T04:07:31.843Z,25
2017-06-19T04:08:31.831Z,25
2017-06-19T04:09:30.906Z,25
2017-06-19T04:10:31.540Z,30
2017-06-19T04:11:31.822Z,30
2017-06-19T04:12:31.528Z,30
2017-06-19T04:13:31.817Z,35
2017-06-19T04:14:31.556Z,45
2017-06-19T04:15:31.516Z,50
2017-06-19T04:16:31.814Z,50
2017-06-19T04:17:31.817Z,50
2017-06-19T04:18:30.900Z,50
2017-06-19T04:19:31.503Z,50
2017-06-19T04:20:31.520Z,55
2017-06-19T04:21:31.809Z,55
2017-06-19T04:22:30.887Z,55
2017-06-19T04:23:31.512Z,60
2017-06-19T04:24:31.208Z,60
2017-06-19T04:25:31.794Z,60
2017-06-19T04:26:31.495Z,65
2017-06-19T04:27:31.796Z,65
2017-06-19T04:28:31.490Z,70
2017-06-19T04:29:31.792Z,70
2017-06-19T04:30:31.182Z,70
2017-06-19T04:31:31.790Z,75
2017-06-19T04:32:31.173Z,75
2017-06-19T04:33:31.787Z,80
2017-06-19T04:34:31.494Z,85
2017-06-19T04:35:31.782Z,90
2017-06-19T04:36:31.494Z,100
2017-06-19T04:37:31.781Z,110
2017-06-19T04:38:31.777Z,130
2017-06-19T04:39:31.780Z,140
2017-06-19T04:40:31.501Z,150
2017-06-19T04:41:31.469Z,160
2017-06-19T04:42:31.474Z,185
2017-06-19T04:43:31.768Z,200
2017-06-19T04:44:31.778Z,205
2017-06-19T04:45:31.774Z,215
2017-06-19T04:46:31.477Z,230
2017-06-19T04:47:31.773Z,230
2017-06-19T04:48:31.770Z,235
2017-06-19T04:49:31.769Z,235
2017-06-19T04:50:31.160Z,235
2017-06-19T04:51:31.771Z,235
2017-06-19T04:52:31.463Z,235
2017-06-19T04:53:31.477Z,240
2017-06-19T04:54:31.769Z,260
2017-06-19T04:55:31.800Z,260
2017-06-19T04:56:30.850Z,265
2017-06-19T04:57:31.473Z,255
2017-06-19T04:58:31.150Z,260
2017-06-19T04:59:31.479Z,260
2017-06-19T05:00:31.791Z,265
2017-06-19T05:01:31.156Z,265
2017-06-19T05:02:31.770Z,270
2017-06-19T05:03:31.768Z,270
2017-06-19T05:04:31.485Z,275
2017-06-19T05:05:31.465Z,280
2017-06-19T05:06:31.155Z,285
2017-06-19T05:07:31.481Z,290
2017-06-19T05:08:31.153Z,290
2017-06-19T05:09:31.159Z,290
2017-06-19T05:10:31.156Z,285
2017-06-19T05:11:31.776Z,290
2017-06-19T05:12:31.480Z,295
2017-06-19T05:13:31.486Z,290
2017-06-19T05:14:31.467Z,290
2017-06-19T05:15:31.169Z,290
2017-06-19T05:16:31.166Z,290
2017-06-19T05:17:31.489Z,295
2017-06-19T05:18:31.487Z,300
2017-06-19T05:19:31.497Z,310
2017-06-19T05:20:31.169Z,315
2017-06-19T05:21:31.491Z,315
2017-06-19T05:22:31.169Z,325
2017-06-19T05:23:31.789Z,325
2017-06-19T05:24:30.868Z,330
2017-06-19T05:25:31.793Z,335
2017-06-19T05:26:31.789Z,340
2017-06-19T05:27:31.187Z,355
2017-06-19T05:28:31.794Z,360
2017-06-19T05:29:31.798Z,370
2017-06-19T05:30:31.509Z,370
2017-06-19T05:31:31.800Z,385
2017-06-19T05:32:31.189Z,410
2017-06-19T05:33:31.499Z,405
2017-06-19T05:34:31.501Z,400
2017-06-19T05:35:31.525Z,405
2017-06-19T05:36:31.512Z,415
2017-06-19T05:37:31.509Z,420
2017-06-19T05:38:31.513Z,430
2017-06-19T05:39:31.211Z,435
2017-06-19T05:40:31.539Z,440
2017-06-19T05:41:31.852Z,445
2017-06-19T05:42:31.222Z,455
2017-06-19T05:43:31.531Z,465
2017-06-19T05:44:31.529Z,470
2017-06-19T05:45:31.542Z,475
2017-06-19T05:46:31.848Z,475
2017-06-19T05:47:31.542Z,480
2017-06-19T05:48:31.851Z,490
2017-06-19T05:49:31.862Z,495
2017-06-19T05:50:31.254Z,495
2017-06-19T05:51:31.591Z,495
2017-06-19T05:52:31.864Z,510
2017-06-19T05:53:31.872Z,540
2017-06-19T05:54:31.578Z,540
2017-06-19T05:55:31.593Z,545
2017-06-19T05:56:31.588Z,535
2017-06-19T05:57:31.886Z,540
2017-06-19T05:58:31.583Z,550
2017-06-19T05:59:31.583Z,555
2017-06-19T06:00:31.590Z,545
2017-06-19T06:01:31.598Z,560
2017-06-19T06:02:31.602Z,575
2017-06-19T06:03:31.631Z,585
2017-06-19T06:04:31.621Z,600
2017-06-19T06:05:31.622Z,610
2017-06-19T06:06:31.637Z,615
2017-06-19T06:07:31.624Z,635
2017-06-19T06:08:31.931Z,625
2017-06-19T06:09:31.322Z,610
2017-06-19T06:10:31.643Z,610
2017-06-19T06:11:31.940Z,625
2017-06-19T06:12:31.950Z,640
2017-06-19T06:13:31.347Z,665
2017-06-19T06:14:31.860Z,665
2017-06-19T06:15:31.050Z,655
2017-06-19T06:16:31.663Z,655
2017-06-19T06:17:31.685Z,650
2017-06-19T06:18:31.690Z,660
2017-06-19T06:19:31.689Z,685
2017-06-19T06:20:31.989Z,700
2017-06-19T06:21:31.693Z,720
2017-06-19T06:22:31.693Z,730
2017-06-19T06:23:31.729Z,730
2017-06-19T06:24:31.916Z,750
2017-06-19T06:25:31.702Z,765
2017-06-19T06:26:31.403Z,775
2017-06-19T06:27:32.022Z,780
2017-06-19T06:28:32.027Z,795
2017-06-19T06:29:31.418Z,785
2017-06-19T06:30:31.428Z,760
2017-06-19T06:31:32.043Z,765
2017-06-19T06:32:32.050Z,745
2017-06-19T06:33:32.054Z,740
2017-06-19T06:34:31.443Z,745
2017-06-19T06:35:31.794Z,730
2017-06-19T06:36:32.074Z,715
2017-06-19T06:37:31.762Z,680
2017-06-19T06:38:31.772Z,660
2017-06-19T06:39:31.776Z,640
2017-06-19T06:40:32.086Z,605
2017-06-19T06:41:31.787Z,580
2017-06-19T06:42:32.095Z,575
2017-06-19T06:43:31.792Z,550
2017-06-19T06:44:32.107Z,540
2017-06-19T06:45:32.108Z,525
2017-06-19T06:46:32.118Z,490
2017-06-19T06:47:32.126Z,470
2017-06-19T06:48:31.813Z,465
2017-06-19T06:49:31.816Z,460
2017-06-19T06:50:32.132Z,460
2017-06-19T06:51:32.138Z,450
2017-06-19T06:52:31.843Z,450
2017-06-19T06:53:31.839Z,475
2017-06-19T06:54:31.232Z,570
2017-06-19T06:55:31.848Z,745
2017-06-19T06:56:32.207Z,845
2017-06-19T06:57:32.158Z,885
2017-06-19T06:58:32.168Z,890
2017-06-19T06:59:32.160Z,870
2017-06-19T07:00:32.173Z,880
2017-06-19T07:01:31.871Z,855
2017-06-19T07:02:32.184Z,770
2017-06-19T07:03:32.184Z,765
2017-06-19T07:04:31.881Z,760
2017-06-19T07:05:31.887Z,750
2017-06-19T07:06:32.193Z,735
2017-06-19T07:07:31.892Z,730
2017-06-19T07:08:31.889Z,730
2017-06-19T07:09:32.199Z,735
2017-06-19T07:10:31.897Z,740
2017-06-19T07:11:31.908Z,735
2017-06-19T07:12:31.909Z,740
2017-06-19T07:13:32.216Z,755
2017-06-19T07:14:31.611Z,700
2017-06-19T07:15:32.225Z,550
2017-06-19T07:16:32.222Z,400
2017-06-19T07:17:32.223Z,320
2017-06-19T07:18:31.917Z,315
2017-06-19T07:19:31.620Z,315
2017-06-19T07:20:32.229Z,305
2017-06-19T07:21:31.622Z,285
2017-06-19T07:22:31.931Z,255
2017-06-19T07:23:31.933Z,240
2017-06-19T07:24:31.623Z,235
2017-06-19T07:25:31.937Z,235
2017-06-19T07:26:31.638Z,230
2017-06-19T07:27:31.941Z,230
2017-06-19T07:28:31.941Z,225
2017-06-19T07:29:32.248Z,225
2017-06-19T07:30:31.639Z,220
2017-06-19T07:31:31.951Z,220
2017-06-19T07:32:31.950Z,215
2017-06-19T07:33:31.356Z,215
2017-06-19T07:34:32.263Z,210
2017-06-19T07:35:32.260Z,210
2017-06-19T07:36:31.964Z,205
2017-06-19T07:37:31.960Z,205
2017-06-19T07:38:31.962Z,205
2017-06-19T07:39:31.964Z,200
2017-06-19T07:40:31.964Z,200
2017-06-19T07:41:31.966Z,200
2017-06-19T07:42:31.967Z,195
2017-06-19T07:43:32.067Z,195
2017-06-19T07:44:31.972Z,190
2017-06-19T07:45:32.006Z,190
2017-06-19T07:46:31.978Z,190
2017-06-19T07:47:32.011Z,185
2017-06-19T07:48:31.977Z,190
2017-06-19T07:49:31.980Z,185
2017-06-19T07:50:31.676Z,185
2017-06-19T07:51:32.292Z,180
2017-06-19T07:52:31.983Z,180
2017-06-19T07:53:32.289Z,180
2017-06-19T07:54:31.984Z,175
2017-06-19T07:55:31.985Z,170
2017-06-19T07:56:31.990Z,170
2017-06-19T07:57:31.990Z,165
2017-06-19T07:58:31.682Z,165
2017-06-19T07:59:32.300Z,160
2017-06-19T08:00:32.000Z,155
2017-06-19T08:01:32.307Z,150
2017-06-19T08:02:32.004Z,150
2017-06-19T08:03:32.001Z,145
2017-06-19T08:04:32.305Z,140
2017-06-19T08:05:31.997Z,135
2017-06-19T08:06:32.317Z,135
2017-06-19T08:07:31.398Z,130
2017-06-19T08:08:32.313Z,130
2017-06-19T08:09:32.028Z,130
2017-06-19T08:10:32.323Z,125
2017-06-19T08:11:32.009Z,120
2017-06-19T08:12:31.706Z,120
2017-06-19T08:13:32.320Z,115
2017-06-19T08:14:32.320Z,115
2017-06-19T08:15:31.711Z,110
2017-06-19T08:16:31.709Z,110
2017-06-19T08:17:32.321Z,105
2017-06-19T08:18:32.022Z,100
2017-06-19T08:19:31.714Z,100
2017-06-19T08:20:32.014Z,95
2017-06-19T08:21:32.021Z,95
2017-06-19T08:22:32.031Z,90
2017-06-19T08:23:31.715Z,90
2017-06-19T08:24:32.329Z,90
2017-06-19T08:25:32.024Z,85
2017-06-19T08:26:32.025Z,85
2017-06-19T08:27:32.029Z,80
2017-06-19T08:28:32.030Z,80
2017-06-19T08:29:32.337Z,80
2017-06-19T08:30:32.338Z,80
2017-06-19T08:31:32.340Z,75
2017-06-19T08:32:32.034Z,75
2017-06-19T08:33:32.340Z,75
2017-06-19T08:34:32.342Z,70
2017-06-19T08:35:32.342Z,70
2017-06-19T08:36:32.335Z,75
2017-06-19T08:37:32.031Z,70
2017-06-19T08:38:32.336Z,70
2017-06-19T08:39:31.728Z,70
2017-06-19T08:40:32.035Z,70
2017-06-19T08:41:32.337Z,70
2017-06-19T08:42:31.745Z,65
2017-06-19T08:43:32.389Z,65
2017-06-19T08:44:32.338Z,65
2017-06-19T08:45:32.035Z,65
2017-06-19T08:46:32.033Z,60
2017-06-19T08:47:32.035Z,60
2017-06-19T08:48:32.038Z,60
2017-06-19T08:49:32.346Z,60
2017-06-19T08:50:32.344Z,60
2017-06-19T08:51:32.345Z,60
2017-06-19T08:52:32.345Z,60
2017-06-19T08:53:32.348Z,60
2017-06-19T08:54:32.035Z,55
2017-06-19T08:55:32.345Z,55
2017-06-19T08:56:32.349Z,55
2017-06-19T08:57:32.042Z,55
2017-06-19T08:58:32.343Z,55
2017-06-19T08:59:31.731Z,55
2017-06-19T09:00:32.346Z,55
2017-06-19T09:01:32.045Z,55
2017-06-19T09:02:32.345Z,55
2017-06-19T09:03:32.352Z,55
2017-06-19T09:04:31.734Z,55
2017-06-19T09:05:32.339Z,55
2017-06-19T09:06:31.735Z,55
2017-06-19T09:07:32.035Z,55
2017-06-19T09:08:32.035Z,55
2017-06-19T09:09:31.731Z,55
2017-06-19T09:10:32.042Z,55
2017-06-19T09:11:32.348Z,55
2017-06-19T09:12:32.348Z,55
2017-06-19T09:13:31.736Z,55
2017-06-19T09:14:31.732Z,55
2017-06-19T09:15:32.034Z,55
2017-06-19T09:16:32.343Z,55
2017-06-19T09:17:32.344Z,55
2017-06-19T09:18:31.735Z,55
2017-06-19T09:19:32.352Z,55
2017-06-19T09:20:31.731Z,55
2017-06-19T09:21:32.345Z,55
2017-06-19T09:22:31.426Z,55
2017-06-19T09:23:32.339Z,55
2017-06-19T09:24:32.343Z,55
2017-06-19T09:25:32.039Z,55
2017-06-19T09:26:31.735Z,55
2017-06-19T09:27:32.348Z,55
2017-06-19T09:28:32.342Z,55
2017-06-19T09:29:32.031Z,55
2017-06-19T09:30:31.428Z,55
2017-06-19T09:31:32.345Z,55
2017-06-19T09:32:32.343Z,55
2017-06-19T09:33:32.036Z,55
2017-06-19T09:34:32.345Z,55
2017-06-19T09:35:32.037Z,55
2017-06-19T09:36:32.340Z,55
2017-06-19T09:37:32.040Z,55
2017-06-19T09:38:32.344Z,55
2017-06-19T09:39:32.036Z,50
2017-06-19T09:40:32.344Z,50
2017-06-19T09:41:32.043Z,50
2017-06-19T09:42:32.339Z,50
2017-06-19T09:43:32.392Z,50
2017-06-19T09:44:31.728Z,50
2017-06-19T09:45:32.037Z,50
2017-06-19T09:46:32.340Z,50
2017-06-19T09:47:32.344Z,50
2017-06-19T09:48:32.031Z,50
2017-06-19T09:49:32.337Z,50
2017-06-19T09:50:32.033Z,50
2017-06-19T09:51:32.338Z,50
2017-06-19T09:52:32.342Z,50
2017-06-19T09:53:32.338Z,50
2017-06-19T09:54:32.339Z,50
2017-06-19T09:55:32.338Z,50
2017-06-19T09:56:31.728Z,50
2017-06-19T09:57:32.031Z,50
2017-06-19T09:58:31.733Z,50
2017-06-19T09:59:32.034Z,50
2017-06-19T10:00:32.337Z,50
2017-06-19T10:01:32.029Z,50
2017-06-19T10:02:31.732Z,50
2017-06-19T10:03:32.330Z,50
2017-06-19T10:04:32.029Z,50
2017-06-19T10:05:32.025Z,50
2017-06-19T10:06:32.028Z,50
2017-06-19T10:07:31.723Z,50
2017-06-19T10:08:32.327Z,50
2017-06-19T10:09:32.023Z,50
2017-06-19T10:10:32.335Z,50
2017-06-19T10:11:32.327Z,50
2017-06-19T10:12:32.331Z,50
2017-06-19T10:13:32.023Z,50
2017-06-19T10:14:32.331Z,50
2017-06-19T10:15:32.328Z,50
2017-06-19T10:16:32.328Z,50
2017-06-19T10:17:31.716Z,50
2017-06-19T10:18:32.022Z,50
2017-06-19T10:19:32.331Z,50
2017-06-19T10:20:32.328Z,50
2017-06-19T10:21:32.324Z,50
2017-06-19T10:22:32.331Z,50
2017-06-19T10:23:32.334Z,50
2017-06-19T10:24:32.329Z,50
2017-06-19T10:25:32.024Z,50
2017-06-19T10:26:32.016Z,50
2017-06-19T10:27:32.019Z,50
2017-06-19T10:28:32.016Z,50
2017-06-19T10:29:32.319Z,50
2017-06-19T10:30:32.330Z,50
2017-06-19T10:31:32.327Z,50
2017-06-19T10:32:32.325Z,50
2017-06-19T10:33:32.019Z,50
2017-06-19T10:34:32.015Z,50
2017-06-19T10:35:32.326Z,50
2017-06-19T10:36:32.020Z,50
2017-06-19T10:37:32.319Z,50
2017-06-19T10:38:32.012Z,50
2017-06-19T10:39:32.320Z,50
2017-06-19T10:40:32.320Z,50
2017-06-19T10:41:32.323Z,50
2017-06-19T10:42:31.705Z,50
2017-06-19T10:43:32.370Z,50
2017-06-19T10:44:32.016Z,50
2017-06-19T10:45:32.018Z,50
2017-06-19T10:46:32.321Z,50
2017-06-19T10:47:32.321Z,50
2017-06-19T10:48:32.017Z,50
2017-06-19T10:49:32.531Z,50
2017-06-19T10:50:32.315Z,50
2017-06-19T10:51:32.314Z,50
2017-06-19T10:52:32.015Z,50
2017-06-19T10:53:32.008Z,50
2017-06-19T10:54:32.316Z,50
2017-06-19T10:55:32.011Z,50
2017-06-19T10:56:32.018Z,50
2017-06-19T10:57:32.006Z,50
2017-06-19T10:58:32.008Z,50
2017-06-19T10:59:31.698Z,50
2017-06-19T11:00:31.705Z,50
2017-06-19T11:01:32.002Z,50
2017-06-19T11:02:32.011Z,50
2017-06-19T11:03:32.008Z,50
2017-06-19T11:04:32.004Z,50
2017-06-19T11:05:32.010Z,50
2017-06-19T11:06:32.010Z,50
2017-06-19T11:07:31.707Z,50
2017-06-19T11:08:32.000Z,45
2017-06-19T11:09:31.697Z,45
2017-06-19T11:10:31.402Z,45
2017-06-19T11:11:32.306Z,45
2017-06-19T11:12:31.693Z,45
2017-06-19T11:13:31.997Z,45
2017-06-19T11:14:32.304Z,45
2017-06-19T11:15:32.008Z,45
2017-06-19T11:16:32.309Z,45
2017-06-19T11:17:32.000Z,45
2017-06-19T11:18:32.309Z,45
2017-06-19T11:19:32.303Z,45
2017-06-19T11:20:32.005Z,45
2017-06-19T11:21:32.001Z,45
2017-06-19T11:22:31.392Z,45
2017-06-19T11:23:31.995Z,45
2017-06-19T11:24:32.302Z,45
2017-06-19T11:25:32.301Z,45
2017-06-19T11:26:32.303Z,45
2017-06-19T11:27:32.001Z,45
2017-06-19T11:28:31.695Z,45
2017-06-19T11:29:32.000Z,45
2017-06-19T11:30:32.300Z,45
2017-06-19T11:31:32.303Z,45
2017-06-19T11:32:32.011Z,45
2017-06-19T11:33:31.991Z,45
2017-06-19T11:34:32.307Z,45
2017-06-19T11:35:31.387Z,45
2017-06-19T11:36:31.998Z,45
2017-06-19T11:37:32.302Z,45
2017-06-19T11:38:31.684Z,45
2017-06-19T11:39:31.688Z,40
2017-06-19T11:40:32.294Z,40
2017-06-19T11:41:32.006Z,40
2017-06-19T11:42:31.377Z,40
2017-06-19T11:43:32.091Z,40
2017-06-19T11:44:31.687Z,40
2017-06-19T11:45:32.294Z,40
2017-06-19T11:46:31.993Z,40
2017-06-19T11:47:31.377Z,40
2017-06-19T11:48:32.294Z,40
2017-06-19T11:49:31.685Z,40
2017-06-19T11:50:31.992Z,40
2017-06-19T11:51:31.998Z,40
2017-06-19T11:52:31.985Z,40
2017-06-19T11:53:31.981Z,40
2017-06-19T11:54:32.295Z,40
2017-06-19T11:55:31.374Z,40
2017-06-19T11:56:31.993Z,40
2017-06-19T11:57:31.982Z,40
2017-06-19T11:58:31.372Z,40
2017-06-19T11:59:31.677Z,40
2017-06-19T12:00:31.373Z,40
2017-06-19T12:01:31.681Z,40
2017-06-19T12:02:31.987Z,40
2017-06-19T12:03:31.671Z,40
2017-06-19T12:04:31.674Z,40
2017-06-19T12:05:32.287Z,40
2017-06-19T12:06:32.289Z,40
2017-06-19T12:07:32.291Z,40
2017-06-19T12:08:32.282Z,40
2017-06-19T12:09:31.681Z,40
2017-06-19T12:10:32.285Z,40
2017-06-19T12:11:31.672Z,40
2017-06-19T12:12:32.282Z,40
2017-06-19T12:13:32.283Z,40
2017-06-19T12:14:31.062Z,40
2017-06-19T12:15:31.983Z,40
2017-06-19T12:16:31.988Z,40
2017-06-19T12:17:32.318Z,35
2017-06-19T12:18:31.980Z,35
2017-06-19T12:19:31.972Z,35
2017-06-19T12:20:31.979Z,35
2017-06-19T12:21:32.286Z,35
2017-06-19T12:22:31.973Z,35
2017-06-19T12:23:31.977Z,35
2017-06-19T12:24:31.681Z,35
2017-06-19T12:25:32.282Z,35
2017-06-19T12:26:32.278Z,35
2017-06-19T12:27:32.189Z,35
2017-06-19T12:28:31.980Z,35
2017-06-19T12:29:31.966Z,35
2017-06-19T12:30:32.274Z,35
2017-06-19T12:31:31.986Z,35
2017-06-19T12:32:31.669Z,35
2017-06-19T12:33:31.364Z,35
2017-06-19T12:34:31.356Z,35
2017-06-19T12:35:32.277Z,35
2017-06-19T12:36:31.967Z,35
2017-06-19T12:37:31.665Z,35
2017-06-19T12:38:32.274Z,35
2017-06-19T12:39:32.270Z,35
2017-06-19T12:40:32.276Z,35
2017-06-19T12:41:31.665Z,35
2017-06-19T12:42:32.272Z,35
2017-06-19T12:43:31.353Z,35
2017-06-19T12:44:31.971Z,35
2017-06-19T12:45:32.272Z,35
2017-06-19T12:46:32.274Z,35
2017-06-19T12:47:31.966Z,35
2017-06-19T12:48:31.660Z,35
2017-06-19T12:49:31.663Z,35
2017-06-19T12:50:31.960Z,35
2017-06-19T12:51:31.962Z,35
2017-06-19T12:52:31.656Z,35
2017-06-19T12:53:31.961Z,35
2017-06-19T12:54:31.960Z,35
2017-06-19T12:55:32.272Z,35
2017-06-19T12:56:32.270Z,35
2017-06-19T12:57:31.960Z,35
2017-06-19T12:58:31.960Z,35
2017-06-19T12:59:31.692Z,35
2017-06-19T13:00:31.654Z,35
2017-06-19T13:01:32.266Z,35
2017-06-19T13:02:32.264Z,35
2017-06-19T13:03:32.261Z,35
2017-06-19T13:04:31.343Z,35
2017-06-19T13:05:31.958Z,35
2017-06-19T13:06:32.267Z,35
2017-06-19T13:07:32.269Z,35
2017-06-19T13:08:31.654Z,35
2017-06-19T13:09:31.650Z,35
2017-06-19T13:10:32.255Z,35
2017-06-19T13:11:31.954Z,35
2017-06-19T13:12:31.953Z,35
2017-06-19T13:13:31.955Z,35
2017-06-19T13:14:32.261Z,35
2017-06-19T13:15:32.257Z,35
2017-06-19T13:16:32.257Z,35
2017-06-19T13:17:31.340Z,35
2017-06-19T13:18:31.343Z,35
2017-06-19T13:19:31.956Z,35
2017-06-19T13:20:31.951Z,35
2017-06-19T13:21:32.257Z,35
2017-06-19T13:22:32.260Z,35
2017-06-19T13:23:32.256Z,35
2017-06-19T13:24:31.639Z,35
2017-06-19T13:25:32.255Z,35
2017-06-19T13:26:32.262Z,35
2017-06-19T13:27:32.258Z,35
2017-06-19T13:28:32.254Z,40
2017-06-19T13:29:31.653Z,35
2017-06-19T13:30:32.285Z,35
2017-06-19T13:31:32.260Z,35
2017-06-19T13:32:31.335Z,35
2017-06-19T13:33:31.635Z,35
2017-06-19T13:34:31.949Z,35
2017-06-19T13:35:31.638Z,35
2017-06-19T13:36:31.640Z,35
2017-06-19T13:37:31.945Z,35
2017-06-19T13:38:31.944Z,35
2017-06-19T13:39:31.945Z,35
2017-06-19T13:40:31.336Z,35
2017-06-19T13:41:31.336Z,35
2017-06-19T13:42:32.251Z,30
2017-06-19T13:43:31.332Z,30
2017-06-19T13:44:31.635Z,30
2017-06-19T13:45:31.642Z,30
2017-06-19T13:46:32.246Z,30
2017-06-19T13:47:32.246Z,30
2017-06-19T13:48:31.630Z,30
2017-06-19T13:49:31.640Z,30
2017-06-19T13:50:31.324Z,30
2017-06-19T13:51:31.953Z,30
2017-06-19T13:52:31.934Z,30
2017-06-19T13:53:31.630Z,30
2017-06-19T13:54:31.934Z,30
2017-06-19T13:55:32.241Z,35
2017-06-19T13:56:31.321Z,35
2017-06-19T13:57:31.634Z,35
2017-06-19T13:58:31.934Z,35
2017-06-19T13:59:31.323Z,35
2017-06-19T14:00:31.627Z,30
2017-06-19T14:01:31.635Z,30
2017-06-19T14:02:31.626Z,30
2017-06-19T14:03:31.629Z,30
2017-06-19T14:04:31.929Z,30
2017-06-19T14:05:31.936Z,30
2017-06-19T14:06:31.932Z,30
2017-06-19T14:07:31.936Z,30
2017-06-19T14:08:31.624Z,30
2017-06-19T14:09:31.318Z,30
2017-06-19T14:10:31.935Z,30
2017-06-19T14:11:31.321Z,30
2017-06-19T14:12:31.931Z,30
2017-06-19T14:13:31.664Z,30
2017-06-19T14:14:31.927Z,30
2017-06-19T14:15:31.934Z,30